createdAt,value
2023-03-05T00:01:08.006Z,99335.81
2023-03-05T00:03:35.119Z,99334.84
2023-03-05T00:06:02.493Z,99335.47
2023-03-05T00:08:30.216Z,99333.50
2023-03-05T00:11:02.708Z,99328.97
2023-03-05T00:13:30.396Z,99335.50
2023-03-05T00:15:57.448Z,99343.31
2023-03-05T00:18:24.956Z,99344.22
2023-03-05T00:20:51.784Z,99346.81
2023-03-05T00:23:18.803Z,99343.94
2023-03-05T00:25:46.732Z,99343.88
2023-03-05T00:28:14.031Z,99342.56
2023-03-05T00:30:41.313Z,99332.56
2023-03-05T00:33:09.177Z,99337.94
2023-03-05T00:35:44.848Z,99341.88
2023-03-05T00:38:12.824Z,99336.94
2023-03-05T00:40:41.425Z,99343.06
2023-03-05T00:43:09.308Z,99349.63
2023-03-05T00:45:36.774Z,99336.91
2023-03-05T00:48:04.857Z,99341.31
2023-03-05T00:50:31.697Z,99338.38
2023-03-05T00:52:59.295Z,99334.31
2023-03-05T00:55:26.306Z,99336.72
2023-03-05T00:57:53.190Z,99331.75
2023-03-05T01:00:20.356Z,99338.81
2023-03-05T01:02:47.195Z,99329.31
2023-03-05T01:05:15.516Z,99337.22
2023-03-05T01:07:42.461Z,99335.41
2023-03-05T01:10:11.902Z,99336.25
2023-03-05T01:12:39.238Z,99341.41
2023-03-05T01:15:06.759Z,99333.31
2023-03-05T01:17:34.593Z,99326.28
2023-03-05T01:20:01.591Z,99327.75
2023-03-05T01:22:28.992Z,99329.63
2023-03-05T01:24:56.003Z,99329.31
2023-03-05T01:27:23.273Z,99326.72
2023-03-05T01:29:50.073Z,99324.31
2023-03-05T01:32:16.983Z,99325.59
2023-03-05T01:34:44.053Z,99324.09
2023-03-05T01:37:10.897Z,99334.72
2023-03-05T01:39:37.851Z,99327.38
2023-03-05T01:42:06.378Z,99320.69
2023-03-05T01:44:34.083Z,99317.09
2023-03-05T01:47:01.254Z,99325.47
2023-03-05T01:49:33.289Z,99317.63
2023-03-05T01:52:18.048Z,99322.06
2023-03-05T01:54:47.116Z,99315.94
2023-03-05T01:57:30.977Z,99322.97
2023-03-05T02:00:02.841Z,99324.09
2023-03-05T02:02:41.218Z,99326.09
2023-03-05T02:05:12.940Z,99321.53
2023-03-05T02:07:42.842Z,99323.19
2023-03-05T02:10:25.794Z,99322.91
2023-03-05T02:12:54.740Z,99326.78
2023-03-05T02:15:22.481Z,99327.69
2023-03-05T02:17:49.461Z,99316.78
2023-03-05T02:20:20.300Z,99318.97
2023-03-05T02:22:47.478Z,99308.00
2023-03-05T02:25:21.145Z,99315.25
2023-03-05T02:27:58.228Z,99319.09
2023-03-05T02:30:25.540Z,99316.16
2023-03-05T02:32:52.416Z,99323.13
2023-03-05T02:35:21.362Z,99313.84
2023-03-05T02:37:48.345Z,99312.06
2023-03-05T02:40:15.849Z,99307.56
2023-03-05T02:42:43.684Z,99308.81
2023-03-05T02:45:13.756Z,99303.38
2023-03-05T02:47:41.174Z,99307.03
2023-03-05T02:50:11.250Z,99308.16
2023-03-05T02:52:39.063Z,99303.91
2023-03-05T02:55:10.317Z,99310.47
2023-03-05T02:57:38.665Z,99306.41
2023-03-05T03:00:06.600Z,99308.94
2023-03-05T03:02:33.842Z,99307.91
2023-03-05T03:05:00.654Z,99305.81
2023-03-05T03:07:27.462Z,99305.88
2023-03-05T03:09:54.297Z,99305.72
2023-03-05T03:12:21.176Z,99312.84
2023-03-05T03:14:48.174Z,99307.34
2023-03-05T03:17:17.090Z,99295.34
2023-03-05T03:19:45.233Z,99297.13
2023-03-05T03:22:14.562Z,99293.56
2023-03-05T03:24:43.113Z,99291.78
2023-03-05T03:27:10.683Z,99288.31
2023-03-05T03:29:37.556Z,99282.78
2023-03-05T03:32:04.836Z,99280.81
2023-03-05T03:34:31.918Z,99272.22
2023-03-05T03:36:58.757Z,99270.63
2023-03-05T03:39:25.691Z,99278.88
2023-03-05T03:41:53.603Z,99276.03
2023-03-05T03:44:21.778Z,99275.59
2023-03-05T03:46:50.555Z,99272.88
2023-03-05T03:49:20.564Z,99271.66
2023-03-05T03:51:49.038Z,99269.69
2023-03-05T03:54:17.028Z,99262.22
2023-03-05T03:56:44.027Z,99258.25
2023-03-05T03:59:11.145Z,99263.09
2023-03-05T04:01:38.307Z,99265.19
2023-03-05T04:04:05.946Z,99258.81
2023-03-05T04:06:33.398Z,99266.97
2023-03-05T04:09:00.561Z,99285.59
2023-03-05T04:11:27.425Z,99285.53
2023-03-05T04:13:54.247Z,99282.91
2023-03-05T04:16:21.510Z,99281.56
2023-03-05T04:18:48.339Z,99286.53
2023-03-05T04:21:15.314Z,99303.38
2023-03-05T04:23:42.269Z,99312.19
2023-03-05T04:26:09.308Z,99308.41
2023-03-05T04:28:36.161Z,99298.09
2023-03-05T04:31:05.092Z,99304.84
2023-03-05T04:33:32.236Z,99302.31
2023-03-05T04:35:59.648Z,99301.38
2023-03-05T04:38:26.496Z,99300.34
2023-03-05T04:40:53.368Z,99314.09
2023-03-05T04:43:20.277Z,99316.25
2023-03-05T04:45:47.217Z,99315.72
2023-03-05T04:48:14.173Z,99321.22
2023-03-05T04:50:41.128Z,99319.66
2023-03-05T04:53:08.001Z,99322.25
2023-03-05T04:55:34.901Z,99319.38
2023-03-05T04:58:01.757Z,99309.34
2023-03-05T05:00:28.657Z,99309.16
2023-03-05T05:02:55.671Z,99316.28
2023-03-05T05:05:26.137Z,99314.34
2023-03-05T05:07:57.545Z,99325.56
2023-03-05T05:10:25.756Z,99324.22
2023-03-05T05:12:52.694Z,99325.28
2023-03-05T05:15:20.516Z,99334.09
2023-03-05T05:17:47.856Z,99333.59
2023-03-05T05:20:15.896Z,99334.94
2023-03-05T05:22:43.122Z,99337.38
2023-03-05T05:25:10.693Z,99337.66
2023-03-05T05:27:41.302Z,99346.75
2023-03-05T05:30:09.442Z,99351.91
2023-03-05T05:32:36.336Z,99354.53
2023-03-05T05:35:04.007Z,99345.16
2023-03-05T05:37:30.955Z,99352.69
2023-03-05T05:39:57.827Z,99360.53
2023-03-05T05:42:25.490Z,99359.44
2023-03-05T05:44:52.992Z,99357.72
2023-03-05T05:47:19.872Z,99359.88
2023-03-05T05:49:46.842Z,99356.94
2023-03-05T05:52:15.252Z,99367.50
2023-03-05T05:54:42.231Z,99361.59
2023-03-05T05:57:09.307Z,99363.22
2023-03-05T05:59:37.549Z,99367.13
2023-03-05T06:02:05.485Z,99370.50
2023-03-05T06:04:32.284Z,99373.19
2023-03-05T06:07:00.026Z,99350.66
2023-03-05T06:09:27.475Z,99363.44
2023-03-05T06:11:54.453Z,99365.44
2023-03-05T06:14:21.586Z,99362.06
2023-03-05T06:16:48.624Z,99366.44
2023-03-05T06:19:16.212Z,99368.72
2023-03-05T06:21:43.671Z,99365.00
2023-03-05T06:24:11.152Z,99362.59
2023-03-05T06:26:38.019Z,99350.53
2023-03-05T06:29:04.846Z,99356.34
2023-03-05T06:31:31.903Z,99358.81
2023-03-05T06:34:03.725Z,99357.16
2023-03-05T06:36:31.185Z,99359.88
2023-03-05T06:38:59.315Z,99356.22
2023-03-05T06:41:31.009Z,99356.19
2023-03-05T06:44:00.454Z,99364.25
2023-03-05T06:46:31.842Z,99358.31
2023-03-05T06:49:01.281Z,99353.09
2023-03-05T06:51:39.907Z,99352.31
2023-03-05T06:54:12.970Z,99343.94
2023-03-05T06:56:41.778Z,99350.41
2023-03-05T06:59:09.233Z,99345.06
2023-03-05T07:01:36.366Z,99351.44
2023-03-05T07:04:04.458Z,99357.03
2023-03-05T07:06:36.245Z,99344.28
2023-03-05T07:09:05.636Z,99344.38
2023-03-05T07:11:33.108Z,99337.59
2023-03-05T07:14:00.327Z,99333.31
2023-03-05T07:16:30.635Z,99329.56
2023-03-05T07:18:59.052Z,99332.38
2023-03-05T07:21:28.437Z,99332.94
2023-03-05T07:23:57.219Z,99326.97
2023-03-05T07:26:24.633Z,99327.25
2023-03-05T07:28:53.990Z,99320.03
2023-03-05T07:31:23.381Z,99313.44
2023-03-05T07:33:50.938Z,99310.78
2023-03-05T07:36:17.965Z,99315.03
2023-03-05T07:38:45.334Z,99315.38
2023-03-05T07:41:19.661Z,99307.03
2023-03-05T07:43:48.373Z,99303.88
2023-03-05T07:46:18.300Z,99302.88
2023-03-05T07:48:45.376Z,99297.22
2023-03-05T07:51:17.886Z,99293.31
2023-03-05T07:53:46.970Z,99295.41
2023-03-05T07:56:14.339Z,99294.63
2023-03-05T07:58:41.210Z,99289.06
2023-03-05T08:01:14.240Z,99279.38
2023-03-05T08:03:42.997Z,99279.03
2023-03-05T08:06:11.868Z,99272.09
2023-03-05T08:08:39.669Z,99269.31
2023-03-05T08:11:08.967Z,99265.50
2023-03-05T08:13:36.341Z,99266.06
2023-03-05T08:16:12.659Z,99259.78
2023-03-05T08:18:39.556Z,99250.56
2023-03-05T08:21:07.086Z,99253.03
2023-03-05T08:23:34.638Z,99248.78
2023-03-05T08:26:01.659Z,99248.28
2023-03-05T08:28:28.796Z,99241.25
2023-03-05T08:30:55.660Z,99250.34
2023-03-05T08:33:22.556Z,99248.44
2023-03-05T08:35:49.667Z,99243.81
2023-03-05T08:38:16.627Z,99241.31
2023-03-05T08:40:43.613Z,99247.66
2023-03-05T08:43:10.535Z,99254.72
2023-03-05T08:45:39.347Z,99256.25
2023-03-05T08:48:06.506Z,99241.91
2023-03-05T08:50:33.405Z,99245.78
2023-03-05T08:53:00.301Z,99247.50
2023-03-05T08:55:27.175Z,99242.53
2023-03-05T08:57:54.046Z,99241.91
2023-03-05T09:00:21.163Z,99238.13
2023-03-05T09:02:48.021Z,99235.47
2023-03-05T09:05:15.087Z,99237.06
2023-03-05T09:07:42.001Z,99235.59
2023-03-05T09:10:11.597Z,99232.84
2023-03-05T09:12:38.439Z,99226.25
2023-03-05T09:15:09.822Z,99220.47
2023-03-05T09:17:38.099Z,99223.97
2023-03-05T09:20:06.679Z,99233.53
2023-03-05T09:22:33.574Z,99230.31
2023-03-05T09:25:00.424Z,99226.25
2023-03-05T09:27:27.283Z,99231.03
2023-03-05T09:29:54.283Z,99241.91
2023-03-05T09:32:21.412Z,99238.16
2023-03-05T09:34:48.434Z,99233.16
2023-03-05T09:37:15.221Z,99227.59
2023-03-05T09:39:42.059Z,99236.69
2023-03-05T09:42:30.376Z,99223.53
2023-03-05T09:45:08.885Z,99214.69
2023-03-05T09:47:38.800Z,99225.06
2023-03-05T09:50:33.173Z,99224.63
2023-03-05T09:53:30.864Z,99222.91
2023-03-05T09:56:01.580Z,99218.19
2023-03-05T09:58:31.421Z,99215.69
2023-03-05T10:01:03.484Z,99219.56
2023-03-05T10:03:57.148Z,99218.06
2023-03-05T10:06:29.294Z,99215.22
2023-03-05T10:09:47.563Z,99215.31
2023-03-05T10:12:35.894Z,99207.41
2023-03-05T10:15:03.334Z,99196.81
2023-03-05T10:17:57.360Z,99191.06
2023-03-05T10:20:39.413Z,99180.88
2023-03-05T10:23:09.356Z,99174.84
2023-03-05T10:26:04.149Z,99162.53
2023-03-05T10:29:03.884Z,99157.00
2023-03-05T10:31:41.197Z,99150.94
2023-03-05T10:34:33.834Z,99139.78
2023-03-05T10:37:06.431Z,99131.44
2023-03-05T10:40:02.745Z,99133.28
2023-03-05T10:43:08.697Z,99120.91
2023-03-05T10:45:41.447Z,99118.22
2023-03-05T10:48:33.252Z,99115.69
2023-03-05T10:51:26.233Z,99115.69
2023-03-05T10:53:53.070Z,99104.66
2023-03-05T10:56:22.851Z,99106.50
2023-03-05T10:58:49.776Z,99096.75
2023-03-05T11:01:16.851Z,99097.78
2023-03-05T11:03:46.481Z,99093.53
2023-03-05T11:06:13.847Z,99093.97
2023-03-05T11:08:41.401Z,99088.81
2023-03-05T11:11:19.845Z,99093.75
2023-03-05T11:14:03.899Z,99076.84
2023-03-05T11:16:45.734Z,99079.09
2023-03-05T11:19:15.569Z,99079.34
2023-03-05T11:21:44.075Z,99080.31
2023-03-05T11:24:15.097Z,99074.03
2023-03-05T11:26:51.556Z,99076.69
2023-03-05T11:29:27.079Z,99072.88
2023-03-05T11:31:54.505Z,99070.97
2023-03-05T11:34:35.523Z,99073.13
2023-03-05T11:37:06.372Z,99070.81
2023-03-05T11:39:37.357Z,99076.69
2023-03-05T11:42:06.751Z,99072.59
2023-03-05T11:44:35.164Z,99074.09
2023-03-05T11:47:23.160Z,99072.34
2023-03-05T11:49:56.088Z,99076.28
2023-03-05T11:52:34.158Z,99072.69
2023-03-05T11:55:03.878Z,99066.28
2023-03-05T11:57:44.314Z,99065.63
2023-03-05T12:00:17.886Z,99057.13
2023-03-05T12:02:49.842Z,99047.97
2023-03-05T12:05:17.438Z,99051.44
2023-03-05T12:07:50.181Z,99041.97
2023-03-05T12:10:20.744Z,99045.81
2023-03-05T12:12:53.365Z,99041.91
2023-03-05T12:15:31.339Z,99046.78
2023-03-05T12:18:27.408Z,99039.78
2023-03-05T12:21:00.424Z,99033.84
2023-03-05T12:23:28.147Z,99036.44
2023-03-05T12:25:57.904Z,99022.94
2023-03-05T12:28:37.159Z,99025.97
2023-03-05T12:31:08.335Z,99023.47
2023-03-05T12:33:39.451Z,99023.59
2023-03-05T12:36:21.381Z,99012.44
2023-03-05T12:38:57.890Z,99018.06
2023-03-05T12:41:26.352Z,99008.63
2023-03-05T12:44:06.854Z,99001.13
2023-03-05T12:46:38.117Z,99004.31
2023-03-05T12:49:28.426Z,98999.00
2023-03-05T12:51:59.121Z,98999.69
2023-03-05T12:54:42.231Z,98997.50
2023-03-05T12:57:22.950Z,98999.41
2023-03-05T13:00:05.411Z,98994.81
2023-03-05T13:02:37.223Z,98999.47
2023-03-05T13:05:33.606Z,98996.44
2023-03-05T13:08:22.958Z,98987.78
2023-03-05T13:10:56.418Z,98987.13
2023-03-05T13:13:26.149Z,98977.31
2023-03-05T13:15:53.718Z,98978.22
2023-03-05T13:18:21.808Z,98974.44
2023-03-05T13:20:52.264Z,98977.53
2023-03-05T13:23:27.389Z,98970.88
2023-03-05T13:26:19.999Z,98969.81
2023-03-05T13:29:31.794Z,98969.13
2023-03-05T13:32:17.833Z,98962.75
2023-03-05T13:34:48.162Z,98970.41
2023-03-05T13:37:21.258Z,98957.34
2023-03-05T13:39:52.289Z,98967.69
2023-03-05T13:42:26.075Z,98961.16
2023-03-05T13:44:58.551Z,98962.38
2023-03-05T13:47:28.763Z,98952.66
2023-03-05T13:50:00.560Z,98957.19
2023-03-05T13:52:36.041Z,98952.66
2023-03-05T13:55:05.393Z,98952.16
2023-03-05T13:57:36.983Z,98950.97
2023-03-05T14:00:28.325Z,98949.31
2023-03-05T14:02:59.745Z,98937.56
2023-03-05T14:05:28.048Z,98931.94
2023-03-05T14:07:56.772Z,98926.88
2023-03-05T14:10:39.359Z,98932.59
2023-03-05T14:13:13.858Z,98933.91
2023-03-05T14:15:40.972Z,98922.28
2023-03-05T14:18:11.849Z,98928.75
2023-03-05T14:20:59.918Z,98918.28
2023-03-05T14:23:32.672Z,98911.28
2023-03-05T14:26:29.485Z,98905.31
2023-03-05T14:29:11.782Z,98909.28
2023-03-05T14:32:00.469Z,98896.94
2023-03-05T14:34:31.144Z,98891.72
2023-03-05T14:37:22.280Z,98898.03
2023-03-05T14:39:58.017Z,98895.28
2023-03-05T14:42:50.890Z,98886.91
2023-03-05T14:45:21.081Z,98892.00
2023-03-05T14:47:48.025Z,98894.78
2023-03-05T14:50:21.297Z,98895.09
2023-03-05T14:52:51.343Z,98890.44
2023-03-05T14:55:21.517Z,98891.56
2023-03-05T14:57:51.539Z,98886.94
2023-03-05T15:00:26.952Z,98897.44
2023-03-05T15:02:54.361Z,98889.66
2023-03-05T15:05:21.247Z,98889.97
2023-03-05T15:07:49.086Z,98890.91
2023-03-05T15:10:18.377Z,98888.47
2023-03-05T15:12:45.770Z,98901.03
2023-03-05T15:15:16.552Z,98892.50
2023-03-05T15:17:47.592Z,98895.81
2023-03-05T15:20:18.300Z,98896.56
2023-03-05T15:22:45.378Z,98886.56
2023-03-05T15:25:13.038Z,98886.56
2023-03-05T15:27:40.042Z,98894.91
2023-03-05T15:30:08.905Z,98887.69
2023-03-05T15:32:35.787Z,98897.19
2023-03-05T15:35:03.027Z,98893.69
2023-03-05T15:37:29.881Z,98892.25
2023-03-05T15:39:56.742Z,98898.78
2023-03-05T15:42:23.629Z,98896.97
2023-03-05T15:44:50.427Z,98894.31
2023-03-05T15:47:17.268Z,98903.69
2023-03-05T15:49:44.077Z,98907.69
2023-03-05T15:52:11.019Z,98911.84
2023-03-05T15:54:37.908Z,98912.00
2023-03-05T15:57:09.679Z,98917.88
2023-03-05T15:59:37.257Z,98914.72
2023-03-05T16:02:04.276Z,98913.97
2023-03-05T16:04:31.392Z,98911.88
2023-03-05T16:07:02.942Z,98921.81
2023-03-05T16:09:35.790Z,98922.63
2023-03-05T16:12:07.330Z,98924.47
2023-03-05T16:14:34.417Z,98927.00
2023-03-05T16:17:03.854Z,98928.53
2023-03-05T16:19:31.397Z,98932.28
2023-03-05T16:21:58.332Z,98930.75
2023-03-05T16:24:25.183Z,98929.53
2023-03-05T16:26:52.225Z,98925.91
2023-03-05T16:29:19.094Z,98928.59
2023-03-05T16:31:46.919Z,98942.22
2023-03-05T16:34:16.217Z,98932.06
2023-03-05T16:36:52.726Z,98940.84
2023-03-05T16:39:21.140Z,98941.69
2023-03-05T16:41:48.397Z,98938.06
2023-03-05T16:44:15.300Z,98935.00
2023-03-05T16:46:44.006Z,98940.00
2023-03-05T16:49:11.308Z,98933.44
2023-03-05T16:51:38.236Z,98939.69
2023-03-05T16:54:05.192Z,98948.56
2023-03-05T16:56:32.045Z,98945.94
2023-03-05T16:58:59.253Z,98955.84
2023-03-05T17:01:26.334Z,98955.03
2023-03-05T17:03:53.692Z,98961.97
2023-03-05T17:06:23.882Z,98967.03
2023-03-05T17:08:51.858Z,98962.56
2023-03-05T17:11:19.415Z,98964.78
2023-03-05T17:13:48.825Z,98964.63
2023-03-05T17:16:19.604Z,98962.94
2023-03-05T17:18:46.720Z,98970.09
2023-03-05T17:21:14.430Z,98964.09
2023-03-05T17:23:41.785Z,98975.22
2023-03-05T17:26:11.999Z,98964.16
2023-03-05T17:28:39.050Z,98958.22
2023-03-05T17:31:06.140Z,98971.75
2023-03-05T17:33:34.439Z,98971.00
2023-03-05T17:36:01.828Z,98972.63
2023-03-05T17:38:28.977Z,98975.03
2023-03-05T17:40:56.285Z,98970.84
2023-03-05T17:43:23.492Z,98973.25
2023-03-05T17:45:50.391Z,98973.44
2023-03-05T17:48:17.398Z,98974.59
2023-03-05T17:50:45.213Z,98974.25
2023-03-05T17:53:12.587Z,98977.47
2023-03-05T17:55:40.054Z,98982.50
2023-03-05T17:58:07.040Z,98981.63
2023-03-05T18:00:34.303Z,98982.75
2023-03-05T18:03:01.663Z,98982.19
2023-03-05T18:05:29.534Z,98982.31
2023-03-05T18:07:56.544Z,98980.13
2023-03-05T18:10:26.219Z,98987.00
2023-03-05T18:12:53.765Z,98989.19
2023-03-05T18:15:22.741Z,98989.63
2023-03-05T18:17:50.095Z,98988.31
2023-03-05T18:20:36.750Z,98991.44
2023-03-05T18:23:05.447Z,98990.13
2023-03-05T18:25:32.525Z,98984.03
2023-03-05T18:28:05.598Z,99001.69
2023-03-05T18:30:32.865Z,99004.50
2023-03-05T18:33:00.105Z,99000.13
2023-03-05T18:35:29.128Z,99003.44
2023-03-05T18:37:56.172Z,99005.34
2023-03-05T18:40:25.127Z,99003.22
2023-03-05T18:42:52.014Z,99005.72
2023-03-05T18:45:20.597Z,99003.47
2023-03-05T18:47:48.142Z,99005.25
2023-03-05T18:50:18.692Z,99014.28
2023-03-05T18:52:45.691Z,99015.56
2023-03-05T18:55:24.546Z,99029.75
2023-03-05T18:57:51.955Z,99024.03
2023-03-05T19:00:23.454Z,99030.56
2023-03-05T19:02:50.673Z,99028.22
2023-03-05T19:05:18.367Z,99027.66
2023-03-05T19:07:45.849Z,99025.38
2023-03-05T19:10:14.272Z,99019.56
2023-03-05T19:13:08.131Z,99030.34
2023-03-05T19:15:35.242Z,99034.03
2023-03-05T19:18:02.154Z,99035.03
2023-03-05T19:20:29.023Z,99036.63
2023-03-05T19:22:55.919Z,99044.94
2023-03-05T19:25:23.125Z,99038.13
2023-03-05T19:27:49.989Z,99055.69
2023-03-05T19:30:17.618Z,99053.09
2023-03-05T19:32:47.232Z,99049.03
2023-03-05T19:35:18.283Z,99057.66
2023-03-05T19:37:46.033Z,99054.41
2023-03-05T19:40:14.753Z,99057.41
2023-03-05T19:42:41.654Z,99060.91
2023-03-05T19:45:09.294Z,99057.06
2023-03-05T19:47:36.131Z,99055.38
2023-03-05T19:50:05.441Z,99056.38
2023-03-05T19:52:32.304Z,99058.97
2023-03-05T19:55:00.192Z,99045.78
2023-03-05T19:57:27.261Z,99045.78
2023-03-05T19:59:54.237Z,99049.59
2023-03-05T20:02:22.046Z,99042.09
2023-03-05T20:04:49.608Z,99045.31
2023-03-05T20:07:17.245Z,99033.28
2023-03-05T20:09:44.191Z,99036.63
2023-03-05T20:12:11.314Z,99034.13
2023-03-05T20:14:38.315Z,99030.06
2023-03-05T20:17:05.225Z,99042.03
2023-03-05T20:19:32.151Z,99042.88
2023-03-05T20:21:59.095Z,99040.75
2023-03-05T20:24:27.248Z,99044.09
2023-03-05T20:26:54.145Z,99042.78
2023-03-05T20:29:21.256Z,99044.31
2023-03-05T20:31:50.044Z,99041.34
2023-03-05T20:34:19.113Z,99044.38
2023-03-05T20:36:46.709Z,99043.19
2023-03-05T20:39:13.887Z,99042.03
2023-03-05T20:41:41.251Z,99052.22
2023-03-05T20:44:08.775Z,99042.41
2023-03-05T20:46:49.707Z,99036.06
2023-03-05T20:49:20.653Z,99036.91
2023-03-05T20:51:50.203Z,99035.69
2023-03-05T20:54:17.342Z,99027.03
2023-03-05T20:56:44.271Z,99017.09
2023-03-05T20:59:11.325Z,99030.06
2023-03-05T21:01:40.134Z,99026.50
2023-03-05T21:04:08.139Z,99025.66
2023-03-05T21:06:35.645Z,99016.16
2023-03-05T21:09:03.034Z,99026.72
2023-03-05T21:11:30.015Z,99020.25
2023-03-05T21:13:56.966Z,99017.84
2023-03-05T21:16:26.830Z,99021.34
2023-03-05T21:18:56.114Z,99019.78
2023-03-05T21:21:23.569Z,99027.00
2023-03-05T21:23:50.542Z,99012.88
2023-03-05T21:26:17.533Z,99010.56
2023-03-05T21:28:44.492Z,99001.09
2023-03-05T21:31:16.948Z,99011.66
2023-03-05T21:33:43.850Z,99010.13
2023-03-05T21:36:10.909Z,99011.50
2023-03-05T21:38:37.882Z,99013.22
2023-03-05T21:41:05.599Z,99008.69
2023-03-05T21:43:32.875Z,99008.53
2023-03-05T21:46:01.239Z,99009.97
2023-03-05T21:48:28.206Z,99007.47
2023-03-05T21:50:55.513Z,99018.16
2023-03-05T21:53:23.482Z,99025.19
2023-03-05T21:56:24.577Z,99014.06
2023-03-05T21:58:52.495Z,99010.22
2023-03-05T22:01:21.210Z,99021.50
2023-03-05T22:03:48.770Z,99010.13
2023-03-05T22:06:17.221Z,99024.16
2023-03-05T22:08:44.297Z,99024.38
2023-03-05T22:11:13.200Z,99020.66
2023-03-05T22:13:40.481Z,99027.50
2023-03-05T22:16:09.307Z,99025.56
2023-03-05T22:18:36.788Z,99021.47
2023-03-05T22:21:04.324Z,99031.00
2023-03-05T22:23:36.877Z,99031.69
2023-03-05T22:26:07.695Z,99030.84
2023-03-05T22:28:35.922Z,99027.75
2023-03-05T22:31:02.891Z,99027.97
2023-03-05T22:33:30.812Z,99026.38
2023-03-05T22:35:58.696Z,99032.50
2023-03-05T22:38:26.410Z,99029.63
2023-03-05T22:40:53.377Z,99027.50
2023-03-05T22:43:20.708Z,99025.72
2023-03-05T22:45:47.874Z,99038.53
2023-03-05T22:48:15.072Z,99038.16
2023-03-05T22:50:44.054Z,99038.50
2023-03-05T22:53:12.187Z,99042.81
2023-03-05T22:55:40.924Z,99029.72
2023-03-05T22:58:07.808Z,99029.03
2023-03-05T23:00:34.797Z,99039.44
2023-03-05T23:03:01.857Z,99043.28
2023-03-05T23:05:28.859Z,99036.91
2023-03-05T23:07:55.666Z,99045.16
2023-03-05T23:10:26.915Z,99039.66
2023-03-05T23:12:55.822Z,99038.03
2023-03-05T23:15:41.664Z,99038.16
2023-03-05T23:18:08.662Z,99046.47
2023-03-05T23:20:36.926Z,99046.25
2023-03-05T23:23:04.876Z,99047.59
2023-03-05T23:25:33.999Z,99044.19
2023-03-05T23:28:01.900Z,99048.53
2023-03-05T23:30:34.650Z,99050.91
2023-03-05T23:33:11.040Z,99039.72
2023-03-05T23:35:41.110Z,99034.13
2023-03-05T23:38:12.298Z,99037.34
2023-03-05T23:40:44.921Z,99038.22
2023-03-05T23:43:12.505Z,99050.09
2023-03-05T23:45:41.779Z,99041.13
2023-03-05T23:48:09.199Z,99040.88
2023-03-05T23:50:39.904Z,99039.16
2023-03-05T23:53:07.010Z,99052.22
2023-03-05T23:55:42.357Z,99048.75
2023-03-05T23:58:10.024Z,99047.22
